sensor_id;sensor_type;location;lat;lon;timestamp;temperature;humidity
60965;DHT22;46834;51.100;6.886;2022-09-21T00:01:10;11.70;48.40
60965;DHT22;46834;51.100;6.886;2022-09-21T00:03:37;11.70;48.40
60965;DHT22;46834;51.100;6.886;2022-09-21T00:06:10;11.70;48.50
60965;DHT22;46834;51.100;6.886;2022-09-21T00:08:40;11.70;48.60
60965;DHT22;46834;51.100;6.886;2022-09-21T00:11:10;11.60;48.30
60965;DHT22;46834;51.100;6.886;2022-09-21T00:13:40;11.60;48.30
60965;DHT22;46834;51.100;6.886;2022-09-21T00:16:08;11.60;48.40
60965;DHT22;46834;51.100;6.886;2022-09-21T00:18:35;11.60;48.50
60965;DHT22;46834;51.100;6.886;2022-09-21T00:21:06;11.60;48.50
60965;DHT22;46834;51.100;6.886;2022-09-21T00:23:34;11.50;48.50
60965;DHT22;46834;51.100;6.886;2022-09-21T00:28:35;11.50;48.50
60965;DHT22;46834;51.100;6.886;2022-09-21T00:31:05;11.40;48.20
60965;DHT22;46834;51.100;6.886;2022-09-21T00:33:33;11.40;48.40
60965;DHT22;46834;51.100;6.886;2022-09-21T00:36:04;11.40;48.30
60965;DHT22;46834;51.100;6.886;2022-09-21T00:38:32;11.30;48.40
60965;DHT22;46834;51.100;6.886;2022-09-21T00:40:59;11.30;48.30
60965;DHT22;46834;51.100;6.886;2022-09-21T00:43:25;11.20;48.20
60965;DHT22;46834;51.100;6.886;2022-09-21T00:46:00;11.20;48.30
60965;DHT22;46834;51.100;6.886;2022-09-21T00:48:29;11.20;48.40
60965;DHT22;46834;51.100;6.886;2022-09-21T00:50:58;11.20;48.40
60965;DHT22;46834;51.100;6.886;2022-09-21T00:53:29;11.10;48.40
60965;DHT22;46834;51.100;6.886;2022-09-21T00:55:56;11.10;48.30
60965;DHT22;46834;51.100;6.886;2022-09-21T00:58:33;11.10;48.40
60965;DHT22;46834;51.100;6.886;2022-09-21T01:01:05;11.10;48.70
60965;DHT22;46834;51.100;6.886;2022-09-21T01:03:31;11.10;48.40
60965;DHT22;46834;51.100;6.886;2022-09-21T01:05:57;11.00;48.40
60965;DHT22;46834;51.100;6.886;2022-09-21T01:08:24;11.00;49.00
60965;DHT22;46834;51.100;6.886;2022-09-21T01:10:59;11.00;48.50
60965;DHT22;46834;51.100;6.886;2022-09-21T01:17:13;11.00;49.20
60965;DHT22;46834;51.100;6.886;2022-09-21T01:34:43;10.90;48.30
60965;DHT22;46834;51.100;6.886;2022-09-21T01:37:18;10.80;48.40
60965;DHT22;46834;51.100;6.886;2022-09-21T01:39:55;10.80;48.20
60965;DHT22;46834;51.100;6.886;2022-09-21T01:42:27;10.80;48.20
60965;DHT22;46834;51.100;6.886;2022-09-21T01:44:56;10.70;48.10
60965;DHT22;46834;51.100;6.886;2022-09-21T01:47:25;10.70;48.20
60965;DHT22;46834;51.100;6.886;2022-09-21T01:49:58;10.60;48.10
60965;DHT22;46834;51.100;6.886;2022-09-21T01:52:51;10.60;48.20
60965;DHT22;46834;51.100;6.886;2022-09-21T01:55:48;10.50;48.60
60965;DHT22;46834;51.100;6.886;2022-09-21T02:01:35;10.50;48.40
60965;DHT22;46834;51.100;6.886;2022-09-21T02:04:10;10.50;48.30
60965;DHT22;46834;51.100;6.886;2022-09-21T02:06:40;10.50;48.60
60965;DHT22;46834;51.100;6.886;2022-09-21T02:09:08;10.40;48.30
60965;DHT22;46834;51.100;6.886;2022-09-21T02:11:35;10.40;48.20
60965;DHT22;46834;51.100;6.886;2022-09-21T02:14:10;10.30;48.10
60965;DHT22;46834;51.100;6.886;2022-09-21T02:20:01;10.30;48.60
60965;DHT22;46834;51.100;6.886;2022-09-21T02:25:37;10.30;48.60
60965;DHT22;46834;51.100;6.886;2022-09-21T02:31:12;10.20;48.20
60965;DHT22;46834;51.100;6.886;2022-09-21T02:36:45;10.10;48.30
60965;DHT22;46834;51.100;6.886;2022-09-21T02:39:20;10.10;48.20
60965;DHT22;46834;51.100;6.886;2022-09-21T02:42:17;10.10;48.30
60965;DHT22;46834;51.100;6.886;2022-09-21T02:44:57;10.00;48.30
60965;DHT22;46834;51.100;6.886;2022-09-21T02:47:55;10.00;48.30
60965;DHT22;46834;51.100;6.886;2022-09-21T02:50:30;10.00;48.50
60965;DHT22;46834;51.100;6.886;2022-09-21T02:53:03;10.00;48.30
60965;DHT22;46834;51.100;6.886;2022-09-21T02:55:32;9.90;48.20
60965;DHT22;46834;51.100;6.886;2022-09-21T02:58:02;9.90;48.20
60965;DHT22;46834;51.100;6.886;2022-09-21T03:00:30;9.90;48.50
60965;DHT22;46834;51.100;6.886;2022-09-21T03:02:56;9.80;48.40
60965;DHT22;46834;51.100;6.886;2022-09-21T03:05:22;9.80;48.50
60965;DHT22;46834;51.100;6.886;2022-09-21T03:07:47;9.80;48.60
60965;DHT22;46834;51.100;6.886;2022-09-21T03:10:13;9.80;48.60
60965;DHT22;46834;51.100;6.886;2022-09-21T03:12:39;9.80;48.60
60965;DHT22;46834;51.100;6.886;2022-09-21T03:15:05;9.80;48.70
60965;DHT22;46834;51.100;6.886;2022-09-21T03:17:31;9.80;48.70
60965;DHT22;46834;51.100;6.886;2022-09-21T03:19:56;9.80;48.70
60965;DHT22;46834;51.100;6.886;2022-09-21T03:22:22;9.80;48.70
60965;DHT22;46834;51.100;6.886;2022-09-21T03:24:49;9.80;48.80
60965;DHT22;46834;51.100;6.886;2022-09-21T03:27:16;9.80;48.80
60965;DHT22;46834;51.100;6.886;2022-09-21T03:29:44;9.80;48.80
60965;DHT22;46834;51.100;6.886;2022-09-21T03:32:11;9.80;48.80
60965;DHT22;46834;51.100;6.886;2022-09-21T03:34:39;9.80;48.90
60965;DHT22;46834;51.100;6.886;2022-09-21T03:37:06;9.80;48.80
60965;DHT22;46834;51.100;6.886;2022-09-21T03:39:33;9.80;48.80
60965;DHT22;46834;51.100;6.886;2022-09-21T03:41:59;9.80;49.40
60965;DHT22;46834;51.100;6.886;2022-09-21T03:44:25;9.80;48.70
60965;DHT22;46834;51.100;6.886;2022-09-21T03:46:51;9.80;48.70
60965;DHT22;46834;51.100;6.886;2022-09-21T03:49:18;9.70;48.60
60965;DHT22;46834;51.100;6.886;2022-09-21T03:51:45;9.70;48.60
60965;DHT22;46834;51.100;6.886;2022-09-21T03:54:11;9.70;48.60
60965;DHT22;46834;51.100;6.886;2022-09-21T03:56:37;9.70;48.60
60965;DHT22;46834;51.100;6.886;2022-09-21T03:59:03;9.60;48.50
60965;DHT22;46834;51.100;6.886;2022-09-21T04:01:29;9.60;48.60
60965;DHT22;46834;51.100;6.886;2022-09-21T04:03:54;9.60;48.60
60965;DHT22;46834;51.100;6.886;2022-09-21T04:06:20;9.60;48.70
60965;DHT22;46834;51.100;6.886;2022-09-21T04:08:46;9.60;48.60
60965;DHT22;46834;51.100;6.886;2022-09-21T04:11:14;9.50;48.50
60965;DHT22;46834;51.100;6.886;2022-09-21T04:13:42;9.50;48.60
60965;DHT22;46834;51.100;6.886;2022-09-21T04:16:09;9.50;48.50
60965;DHT22;46834;51.100;6.886;2022-09-21T04:18:36;9.50;48.60
60965;DHT22;46834;51.100;6.886;2022-09-21T04:21:03;9.40;48.60
60965;DHT22;46834;51.100;6.886;2022-09-21T04:23:30;9.40;48.50
60965;DHT22;46834;51.100;6.886;2022-09-21T04:25:57;9.40;48.60
60965;DHT22;46834;51.100;6.886;2022-09-21T04:28:23;9.40;48.70
60965;DHT22;46834;51.100;6.886;2022-09-21T04:30:52;9.40;48.70
60965;DHT22;46834;51.100;6.886;2022-09-21T04:33:19;9.40;48.90
60965;DHT22;46834;51.100;6.886;2022-09-21T04:35:44;9.30;48.80
60965;DHT22;46834;51.100;6.886;2022-09-21T04:38:10;9.30;48.90
60965;DHT22;46834;51.100;6.886;2022-09-21T04:40:37;9.30;48.90
60965;DHT22;46834;51.100;6.886;2022-09-21T04:43:03;9.30;49.00
60965;DHT22;46834;51.100;6.886;2022-09-21T04:45:29;9.30;49.00
60965;DHT22;46834;51.100;6.886;2022-09-21T04:47:56;9.30;49.10
60965;DHT22;46834;51.100;6.886;2022-09-21T04:50:22;9.30;49.00
60965;DHT22;46834;51.100;6.886;2022-09-21T04:52:48;9.30;49.10
60965;DHT22;46834;51.100;6.886;2022-09-21T04:55:13;9.30;49.10
60965;DHT22;46834;51.100;6.886;2022-09-21T04:57:39;9.30;49.10
60965;DHT22;46834;51.100;6.886;2022-09-21T05:00:05;9.30;49.10
60965;DHT22;46834;51.100;6.886;2022-09-21T05:02:31;9.30;49.10
60965;DHT22;46834;51.100;6.886;2022-09-21T05:04:57;9.30;49.20
60965;DHT22;46834;51.100;6.886;2022-09-21T05:07:23;9.30;49.20
60965;DHT22;46834;51.100;6.886;2022-09-21T05:09:48;9.30;49.20
60965;DHT22;46834;51.100;6.886;2022-09-21T05:12:33;9.30;49.30
60965;DHT22;46834;51.100;6.886;2022-09-21T05:15:00;9.30;49.20
60965;DHT22;46834;51.100;6.886;2022-09-21T05:17:26;9.30;49.10
60965;DHT22;46834;51.100;6.886;2022-09-21T05:19:52;9.20;49.10
60965;DHT22;46834;51.100;6.886;2022-09-21T05:22:18;9.20;49.20
60965;DHT22;46834;51.100;6.886;2022-09-21T05:24:45;9.20;49.20
60965;DHT22;46834;51.100;6.886;2022-09-21T05:27:11;9.20;49.30
60965;DHT22;46834;51.100;6.886;2022-09-21T05:29:38;9.20;49.30
60965;DHT22;46834;51.100;6.886;2022-09-21T05:32:25;9.20;49.40
60965;DHT22;46834;51.100;6.886;2022-09-21T05:35:20;9.20;49.90
60965;DHT22;46834;51.100;6.886;2022-09-21T05:38:15;9.20;49.80
60965;DHT22;46834;51.100;6.886;2022-09-21T05:40:43;9.20;49.60
60965;DHT22;46834;51.100;6.886;2022-09-21T05:43:10;9.20;49.40
60965;DHT22;46834;51.100;6.886;2022-09-21T05:45:40;9.20;49.50
60965;DHT22;46834;51.100;6.886;2022-09-21T05:48:20;9.20;50.20
60965;DHT22;46834;51.100;6.886;2022-09-21T05:51:05;9.30;49.70
60965;DHT22;46834;51.100;6.886;2022-09-21T05:54:09;9.30;49.50
60965;DHT22;46834;51.100;6.886;2022-09-21T06:00:10;9.30;49.80
60965;DHT22;46834;51.100;6.886;2022-09-21T06:03:12;9.30;49.90
60965;DHT22;46834;51.100;6.886;2022-09-21T06:05:46;9.40;49.80
60965;DHT22;46834;51.100;6.886;2022-09-21T06:08:11;9.40;49.60
60965;DHT22;46834;51.100;6.886;2022-09-21T06:10:37;9.40;49.60
60965;DHT22;46834;51.100;6.886;2022-09-21T06:13:03;9.40;49.70
60965;DHT22;46834;51.100;6.886;2022-09-21T06:15:28;9.40;49.70
60965;DHT22;46834;51.100;6.886;2022-09-21T06:17:54;9.40;49.80
60965;DHT22;46834;51.100;6.886;2022-09-21T06:20:19;9.40;49.70
60965;DHT22;46834;51.100;6.886;2022-09-21T06:22:45;9.40;49.80
60965;DHT22;46834;51.100;6.886;2022-09-21T06:25:11;9.50;49.90
60965;DHT22;46834;51.100;6.886;2022-09-21T06:27:36;9.50;49.90
60965;DHT22;46834;51.100;6.886;2022-09-21T06:30:02;9.50;50.00
60965;DHT22;46834;51.100;6.886;2022-09-21T06:32:28;9.60;50.10
60965;DHT22;46834;51.100;6.886;2022-09-21T06:34:54;9.60;50.20
60965;DHT22;46834;51.100;6.886;2022-09-21T06:37:19;9.70;50.20
60965;DHT22;46834;51.100;6.886;2022-09-21T06:39:45;9.70;50.20
60965;DHT22;46834;51.100;6.886;2022-09-21T06:42:10;9.70;50.20
60965;DHT22;46834;51.100;6.886;2022-09-21T06:44:36;9.80;50.30
60965;DHT22;46834;51.100;6.886;2022-09-21T06:47:02;9.90;50.40
60965;DHT22;46834;51.100;6.886;2022-09-21T06:49:27;9.90;51.00
60965;DHT22;46834;51.100;6.886;2022-09-21T06:51:54;10.00;50.50
60965;DHT22;46834;51.100;6.886;2022-09-21T06:54:20;10.00;50.50
60965;DHT22;46834;51.100;6.886;2022-09-21T06:56:46;10.10;50.60
60965;DHT22;46834;51.100;6.886;2022-09-21T06:59:12;10.10;50.60
60965;DHT22;46834;51.100;6.886;2022-09-21T07:01:37;10.10;50.60
60965;DHT22;46834;51.100;6.886;2022-09-21T07:04:03;10.20;50.70
60965;DHT22;46834;51.100;6.886;2022-09-21T07:06:29;10.20;50.70
60965;DHT22;46834;51.100;6.886;2022-09-21T07:08:55;10.30;50.80
60965;DHT22;46834;51.100;6.886;2022-09-21T07:11:21;10.30;50.80
60965;DHT22;46834;51.100;6.886;2022-09-21T07:13:48;10.40;50.90
60965;DHT22;46834;51.100;6.886;2022-09-21T07:16:15;10.40;50.90
60965;DHT22;46834;51.100;6.886;2022-09-21T07:18:41;10.50;51.00
60965;DHT22;46834;51.100;6.886;2022-09-21T07:21:09;10.50;51.00
60965;DHT22;46834;51.100;6.886;2022-09-21T07:23:36;10.50;51.10
60965;DHT22;46834;51.100;6.886;2022-09-21T07:26:08;10.60;51.10
60965;DHT22;46834;51.100;6.886;2022-09-21T07:28:35;10.60;51.20
60965;DHT22;46834;51.100;6.886;2022-09-21T07:31:13;10.70;51.20
60965;DHT22;46834;51.100;6.886;2022-09-21T07:33:41;10.70;51.50
60965;DHT22;46834;51.100;6.886;2022-09-21T07:36:12;10.80;51.30
60965;DHT22;46834;51.100;6.886;2022-09-21T07:38:41;10.90;51.30
60965;DHT22;46834;51.100;6.886;2022-09-21T07:41:12;10.90;51.40
60965;DHT22;46834;51.100;6.886;2022-09-21T07:43:38;10.90;51.50
60965;DHT22;46834;51.100;6.886;2022-09-21T07:46:06;11.00;51.30
60965;DHT22;46834;51.100;6.886;2022-09-21T07:48:33;11.00;51.30
60965;DHT22;46834;51.100;6.886;2022-09-21T07:51:10;11.10;51.40
60965;DHT22;46834;51.100;6.886;2022-09-21T07:53:38;11.20;51.80
60965;DHT22;46834;51.100;6.886;2022-09-21T07:56:10;11.20;51.50
60965;DHT22;46834;51.100;6.886;2022-09-21T07:58:38;11.20;51.60
60965;DHT22;46834;51.100;6.886;2022-09-21T08:01:24;11.30;51.50
60965;DHT22;46834;51.100;6.886;2022-09-21T08:03:52;11.30;51.40
60965;DHT22;46834;51.100;6.886;2022-09-21T08:06:20;11.40;51.50
60965;DHT22;46834;51.100;6.886;2022-09-21T08:08:47;11.40;51.60
60965;DHT22;46834;51.100;6.886;2022-09-21T08:11:16;11.50;51.60
60965;DHT22;46834;51.100;6.886;2022-09-21T08:13:44;11.50;51.60
60965;DHT22;46834;51.100;6.886;2022-09-21T08:16:10;11.60;51.60
60965;DHT22;46834;51.100;6.886;2022-09-21T08:18:37;11.70;51.70
60965;DHT22;46834;51.100;6.886;2022-09-21T08:21:04;11.70;51.70
60965;DHT22;46834;51.100;6.886;2022-09-21T08:23:31;11.80;51.70
60965;DHT22;46834;51.100;6.886;2022-09-21T08:26:01;11.80;51.60
60965;DHT22;46834;51.100;6.886;2022-09-21T08:28:29;11.90;51.60
60965;DHT22;46834;51.100;6.886;2022-09-21T08:30:59;12.00;51.50
60965;DHT22;46834;51.100;6.886;2022-09-21T08:33:26;12.10;52.10
60965;DHT22;46834;51.100;6.886;2022-09-21T08:35:54;12.10;51.50
60965;DHT22;46834;51.100;6.886;2022-09-21T08:38:20;12.10;52.00
60965;DHT22;46834;51.100;6.886;2022-09-21T08:40:46;12.20;51.40
60965;DHT22;46834;51.100;6.886;2022-09-21T08:43:21;12.20;51.40
60965;DHT22;46834;51.100;6.886;2022-09-21T08:45:51;12.30;51.40
60965;DHT22;46834;51.100;6.886;2022-09-21T08:48:22;12.30;51.40
60965;DHT22;46834;51.100;6.886;2022-09-21T08:50:56;12.40;51.40
60965;DHT22;46834;51.100;6.886;2022-09-21T08:53:42;12.50;51.50
60965;DHT22;46834;51.100;6.886;2022-09-21T08:56:14;12.60;51.40
60965;DHT22;46834;51.100;6.886;2022-09-21T08:58:41;12.70;51.40
60965;DHT22;46834;51.100;6.886;2022-09-21T09:04:03;12.70;51.20
60965;DHT22;46834;51.100;6.886;2022-09-21T09:10:04;12.90;51.20
60965;DHT22;46834;51.100;6.886;2022-09-21T09:21:31;13.20;51.00
60965;DHT22;46834;51.100;6.886;2022-09-21T09:32:29;13.50;50.50
60965;DHT22;46834;51.100;6.886;2022-09-21T09:38:27;13.70;50.50
60965;DHT22;46834;51.100;6.886;2022-09-21T09:41:17;13.80;50.50
60965;DHT22;46834;51.100;6.886;2022-09-21T09:43:52;13.80;50.20
60965;DHT22;46834;51.100;6.886;2022-09-21T09:49:15;13.90;50.30
60965;DHT22;46834;51.100;6.886;2022-09-21T09:51:49;14.00;50.10
60965;DHT22;46834;51.100;6.886;2022-09-21T09:54:17;14.10;50.00
60965;DHT22;46834;51.100;6.886;2022-09-21T09:56:47;14.10;49.80
60965;DHT22;46834;51.100;6.886;2022-09-21T09:59:34;14.20;49.90
60965;DHT22;46834;51.100;6.886;2022-09-21T10:02:19;14.30;49.10
60965;DHT22;46834;51.100;6.886;2022-09-21T10:05:20;14.30;49.60
60965;DHT22;46834;51.100;6.886;2022-09-21T10:07:48;14.40;48.90
60965;DHT22;46834;51.100;6.886;2022-09-21T10:10:31;14.50;49.60
60965;DHT22;46834;51.100;6.886;2022-09-21T10:13:12;14.50;49.20
60965;DHT22;46834;51.100;6.886;2022-09-21T10:15:54;14.60;48.90
60965;DHT22;46834;51.100;6.886;2022-09-21T10:18:53;14.70;49.10
60965;DHT22;46834;51.100;6.886;2022-09-21T10:24:34;14.80;49.00
60965;DHT22;46834;51.100;6.886;2022-09-21T10:27:12;14.90;48.60
60965;DHT22;46834;51.100;6.886;2022-09-21T10:29:44;14.90;48.50
60965;DHT22;46834;51.100;6.886;2022-09-21T10:34:39;15.00;49.50
60965;DHT22;46834;51.100;6.886;2022-09-21T10:37:28;15.10;48.80
60965;DHT22;46834;51.100;6.886;2022-09-21T10:40:21;15.20;48.00
60965;DHT22;46834;51.100;6.886;2022-09-21T10:42:51;15.30;48.10
60965;DHT22;46834;51.100;6.886;2022-09-21T10:47:58;15.30;47.90
60965;DHT22;46834;51.100;6.886;2022-09-21T10:50:40;15.40;48.20
60965;DHT22;46834;51.100;6.886;2022-09-21T10:55:39;15.50;48.30
60965;DHT22;46834;51.100;6.886;2022-09-21T10:58:30;15.60;47.80
60965;DHT22;46834;51.100;6.886;2022-09-21T11:01:10;15.70;48.20
60965;DHT22;46834;51.100;6.886;2022-09-21T11:06:14;15.80;47.60
60965;DHT22;46834;51.100;6.886;2022-09-21T11:09:11;15.80;47.70
60965;DHT22;46834;51.100;6.886;2022-09-21T11:12:05;15.90;46.50
60965;DHT22;46834;51.100;6.886;2022-09-21T11:14:52;16.00;46.50
60965;DHT22;46834;51.100;6.886;2022-09-21T11:17:37;16.00;47.20
60965;DHT22;46834;51.100;6.886;2022-09-21T11:26:12;16.20;46.50
60965;DHT22;46834;51.100;6.886;2022-09-21T11:46:51;16.70;46.20
60965;DHT22;46834;51.100;6.886;2022-09-21T11:49:38;16.80;46.00
60965;DHT22;46834;51.100;6.886;2022-09-21T12:04:21;17.10;45.90
60965;DHT22;46834;51.100;6.886;2022-09-21T12:10:41;17.20;45.40
60965;DHT22;46834;51.100;6.886;2022-09-21T12:13:40;17.30;45.40
60965;DHT22;46834;51.100;6.886;2022-09-21T12:19:16;17.30;45.50
60965;DHT22;46834;51.100;6.886;2022-09-21T12:21:52;17.40;45.20
60965;DHT22;46834;51.100;6.886;2022-09-21T12:24:33;17.40;45.20
60965;DHT22;46834;51.100;6.886;2022-09-21T12:27:10;17.50;44.60
60965;DHT22;46834;51.100;6.886;2022-09-21T12:29:49;17.60;44.80
60965;DHT22;46834;51.100;6.886;2022-09-21T12:33:00;17.60;45.10
60965;DHT22;46834;51.100;6.886;2022-09-21T12:35:47;17.70;44.30
60965;DHT22;46834;51.100;6.886;2022-09-21T12:38:22;17.80;44.40
60965;DHT22;46834;51.100;6.886;2022-09-21T12:44:04;18.00;44.80
60965;DHT22;46834;51.100;6.886;2022-09-21T12:47:03;18.10;44.30
60965;DHT22;46834;51.100;6.886;2022-09-21T12:49:41;18.30;44.50
60965;DHT22;46834;51.100;6.886;2022-09-21T12:52:20;18.40;44.50
60965;DHT22;46834;51.100;6.886;2022-09-21T13:01:05;18.70;44.00
60965;DHT22;46834;51.100;6.886;2022-09-21T13:03:47;18.70;44.20
60965;DHT22;46834;51.100;6.886;2022-09-21T13:09:33;18.80;43.70
60965;DHT22;46834;51.100;6.886;2022-09-21T13:12:19;18.90;44.40
60965;DHT22;46834;51.100;6.886;2022-09-21T13:14:51;18.90;43.90
60965;DHT22;46834;51.100;6.886;2022-09-21T13:17:29;18.80;43.90
60965;DHT22;46834;51.100;6.886;2022-09-21T13:20:02;18.80;43.60
60965;DHT22;46834;51.100;6.886;2022-09-21T13:22:38;18.70;43.50
60965;DHT22;46834;51.100;6.886;2022-09-21T13:25:17;18.70;43.50
60965;DHT22;46834;51.100;6.886;2022-09-21T13:33:37;18.40;43.20
60965;DHT22;46834;51.100;6.886;2022-09-21T13:36:33;18.40;42.70
60965;DHT22;46834;51.100;6.886;2022-09-21T13:39:17;18.40;42.30
60965;DHT22;46834;51.100;6.886;2022-09-21T13:41:44;18.40;42.40
60965;DHT22;46834;51.100;6.886;2022-09-21T13:44:42;18.40;43.30
60965;DHT22;46834;51.100;6.886;2022-09-21T13:47:08;18.50;42.30
60965;DHT22;46834;51.100;6.886;2022-09-21T13:49:46;18.50;43.10
60965;DHT22;46834;51.100;6.886;2022-09-21T13:57:37;18.70;42.40
60965;DHT22;46834;51.100;6.886;2022-09-21T14:02:40;18.80;42.10
60965;DHT22;46834;51.100;6.886;2022-09-21T14:05:29;18.90;42.50
60965;DHT22;46834;51.100;6.886;2022-09-21T14:08:02;18.90;42.60
60965;DHT22;46834;51.100;6.886;2022-09-21T14:11:05;18.90;43.00
60965;DHT22;46834;51.100;6.886;2022-09-21T14:13:42;18.90;41.70
60965;DHT22;46834;51.100;6.886;2022-09-21T14:24:42;18.90;41.30
60965;DHT22;46834;51.100;6.886;2022-09-21T14:27:32;18.90;41.20
60965;DHT22;46834;51.100;6.886;2022-09-21T14:30:20;18.90;41.10
60965;DHT22;46834;51.100;6.886;2022-09-21T14:33:21;18.90;41.90
60965;DHT22;46834;51.100;6.886;2022-09-21T14:35:52;18.90;41.30
60965;DHT22;46834;51.100;6.886;2022-09-21T14:38:34;18.90;42.00
60965;DHT22;46834;51.100;6.886;2022-09-21T14:41:17;19.00;41.30
60965;DHT22;46834;51.100;6.886;2022-09-21T14:43:53;19.00;41.70
60965;DHT22;46834;51.100;6.886;2022-09-21T14:46:52;19.00;41.00
60965;DHT22;46834;51.100;6.886;2022-09-21T14:49:36;19.00;40.90
60965;DHT22;46834;51.100;6.886;2022-09-21T15:04:07;19.20;40.30
60965;DHT22;46834;51.100;6.886;2022-09-21T15:16:23;19.20;40.30
60965;DHT22;46834;51.100;6.886;2022-09-21T15:22:08;19.20;39.70
60965;DHT22;46834;51.100;6.886;2022-09-21T15:25:01;19.20;39.90
60965;DHT22;46834;51.100;6.886;2022-09-21T15:27:29;19.10;39.40
60965;DHT22;46834;51.100;6.886;2022-09-21T15:29:58;19.00;40.10
60965;DHT22;46834;51.100;6.886;2022-09-21T15:32:43;18.90;40.00
60965;DHT22;46834;51.100;6.886;2022-09-21T15:37:40;18.80;40.10
60965;DHT22;46834;51.100;6.886;2022-09-21T15:40:16;18.70;40.10
60965;DHT22;46834;51.100;6.886;2022-09-21T15:45:56;18.70;39.50
60965;DHT22;46834;51.100;6.886;2022-09-21T15:48:34;18.60;39.50
60965;DHT22;46834;51.100;6.886;2022-09-21T15:51:23;18.60;40.00
60965;DHT22;46834;51.100;6.886;2022-09-21T15:54:07;18.60;39.50
60965;DHT22;46834;51.100;6.886;2022-09-21T15:56:44;18.60;39.70
60965;DHT22;46834;51.100;6.886;2022-09-21T15:59:15;18.60;40.10
60965;DHT22;46834;51.100;6.886;2022-09-21T16:01:47;18.60;39.80
60965;DHT22;46834;51.100;6.886;2022-09-21T16:04:20;18.50;40.30
60965;DHT22;46834;51.100;6.886;2022-09-21T16:11:52;18.40;39.40
60965;DHT22;46834;51.100;6.886;2022-09-21T16:14:18;18.40;39.40
60965;DHT22;46834;51.100;6.886;2022-09-21T16:20:10;18.40;39.00
60965;DHT22;46834;51.100;6.886;2022-09-21T16:22:43;18.30;38.70
60965;DHT22;46834;51.100;6.886;2022-09-21T16:25:33;18.30;39.20
60965;DHT22;46834;51.100;6.886;2022-09-21T16:28:27;18.30;38.50
60965;DHT22;46834;51.100;6.886;2022-09-21T16:30:58;18.20;38.50
60965;DHT22;46834;51.100;6.886;2022-09-21T16:38:57;18.10;38.60
60965;DHT22;46834;51.100;6.886;2022-09-21T16:42:08;18.10;39.00
60965;DHT22;46834;51.100;6.886;2022-09-21T16:44:21;18.00;38.60
60965;DHT22;46834;51.100;6.886;2022-09-21T16:47:00;18.00;38.60
60965;DHT22;46834;51.100;6.886;2022-09-21T16:49:29;17.90;38.30
60965;DHT22;46834;51.100;6.886;2022-09-21T16:51:59;17.90;38.70
60965;DHT22;46834;51.100;6.886;2022-09-21T16:54:26;17.80;38.60
60965;DHT22;46834;51.100;6.886;2022-09-21T16:56:54;17.70;38.60
60965;DHT22;46834;51.100;6.886;2022-09-21T16:59:22;17.70;38.50
60965;DHT22;46834;51.100;6.886;2022-09-21T17:01:50;17.60;38.40
60965;DHT22;46834;51.100;6.886;2022-09-21T17:04:19;17.50;38.30
60965;DHT22;46834;51.100;6.886;2022-09-21T17:06:51;17.50;38.30
60965;DHT22;46834;51.100;6.886;2022-09-21T17:09:23;17.40;38.10
60965;DHT22;46834;51.100;6.886;2022-09-21T17:11:51;17.40;38.20
60965;DHT22;46834;51.100;6.886;2022-09-21T17:14:19;17.30;38.20
60965;DHT22;46834;51.100;6.886;2022-09-21T17:16:48;17.30;38.20
60965;DHT22;46834;51.100;6.886;2022-09-21T17:19:16;17.20;38.10
60965;DHT22;46834;51.100;6.886;2022-09-21T17:21:43;17.20;38.20
60965;DHT22;46834;51.100;6.886;2022-09-21T17:24:11;17.10;38.20
60965;DHT22;46834;51.100;6.886;2022-09-21T17:26:37;17.10;38.30
60965;DHT22;46834;51.100;6.886;2022-09-21T17:31:47;17.00;38.00
60965;DHT22;46834;51.100;6.886;2022-09-21T17:34:20;16.90;38.40
60965;DHT22;46834;51.100;6.886;2022-09-21T17:36:48;16.80;38.50
60965;DHT22;46834;51.100;6.886;2022-09-21T17:39:14;16.80;38.80
60965;DHT22;46834;51.100;6.886;2022-09-21T17:47:23;16.60;39.70
60965;DHT22;46834;51.100;6.886;2022-09-21T17:49:53;16.60;39.80
60965;DHT22;46834;51.100;6.886;2022-09-21T17:52:23;16.50;40.00
60965;DHT22;46834;51.100;6.886;2022-09-21T17:55:10;16.40;40.10
60965;DHT22;46834;51.100;6.886;2022-09-21T17:57:49;16.40;40.60
60965;DHT22;46834;51.100;6.886;2022-09-21T18:01:03;16.30;40.80
60965;DHT22;46834;51.100;6.886;2022-09-21T18:03:42;16.30;41.00
60965;DHT22;46834;51.100;6.886;2022-09-21T18:06:10;16.20;40.70
60965;DHT22;46834;51.100;6.886;2022-09-21T18:08:37;16.20;40.90
60965;DHT22;46834;51.100;6.886;2022-09-21T18:19:42;15.90;40.70
60965;DHT22;46834;51.100;6.886;2022-09-21T18:25:37;15.80;40.30
60965;DHT22;46834;51.100;6.886;2022-09-21T18:28:21;15.70;40.20
60965;DHT22;46834;51.100;6.886;2022-09-21T18:31:18;15.70;40.20
60965;DHT22;46834;51.100;6.886;2022-09-21T18:34:46;15.60;40.10
60965;DHT22;46834;51.100;6.886;2022-09-21T18:37:43;15.60;40.20
60965;DHT22;46834;51.100;6.886;2022-09-21T18:49:02;15.40;40.50
60965;DHT22;46834;51.100;6.886;2022-09-21T18:52:12;15.30;40.50
60965;DHT22;46834;51.100;6.886;2022-09-21T18:54:45;15.20;40.60
60965;DHT22;46834;51.100;6.886;2022-09-21T18:57:13;15.20;40.60
60965;DHT22;46834;51.100;6.886;2022-09-21T18:59:40;15.10;40.60
60965;DHT22;46834;51.100;6.886;2022-09-21T19:02:15;15.00;40.60
60965;DHT22;46834;51.100;6.886;2022-09-21T19:04:44;15.00;40.80
60965;DHT22;46834;51.100;6.886;2022-09-21T19:07:24;14.90;40.70
60965;DHT22;46834;51.100;6.886;2022-09-21T19:10:21;14.90;40.80
60965;DHT22;46834;51.100;6.886;2022-09-21T19:13:25;14.80;41.00
60965;DHT22;46834;51.100;6.886;2022-09-21T19:16:26;14.80;41.10
60965;DHT22;46834;51.100;6.886;2022-09-21T19:25:18;14.60;40.90
60965;DHT22;46834;51.100;6.886;2022-09-21T19:28:00;14.60;41.30
60965;DHT22;46834;51.100;6.886;2022-09-21T19:30:29;14.60;41.30
60965;DHT22;46834;51.100;6.886;2022-09-21T19:32:56;14.50;41.20
60965;DHT22;46834;51.100;6.886;2022-09-21T19:35:30;14.40;41.20
60965;DHT22;46834;51.100;6.886;2022-09-21T19:37:59;14.40;41.40
60965;DHT22;46834;51.100;6.886;2022-09-21T19:40:33;14.40;41.50
60965;DHT22;46834;51.100;6.886;2022-09-21T19:43:26;14.40;41.80
60965;DHT22;46834;51.100;6.886;2022-09-21T19:46:19;14.40;41.90
60965;DHT22;46834;51.100;6.886;2022-09-21T19:49:02;14.30;41.90
60965;DHT22;46834;51.100;6.886;2022-09-21T19:51:42;14.20;41.60
60965;DHT22;46834;51.100;6.886;2022-09-21T19:54:18;14.20;41.90
60965;DHT22;46834;51.100;6.886;2022-09-21T19:57:18;14.10;41.80
60965;DHT22;46834;51.100;6.886;2022-09-21T20:00:07;14.10;42.00
60965;DHT22;46834;51.100;6.886;2022-09-21T20:05:22;14.10;42.10
60965;DHT22;46834;51.100;6.886;2022-09-21T20:08:15;14.00;42.00
60965;DHT22;46834;51.100;6.886;2022-09-21T20:13:51;13.90;42.20
60965;DHT22;46834;51.100;6.886;2022-09-21T20:19:22;13.90;42.10
60965;DHT22;46834;51.100;6.886;2022-09-21T20:22:08;13.80;42.40
60965;DHT22;46834;51.100;6.886;2022-09-21T20:24:43;13.80;42.30
60965;DHT22;46834;51.100;6.886;2022-09-21T20:30:09;13.70;42.40